createdAt,value
2018-10-19T00:00:30.215Z,41.37
2018-10-19T00:02:57.939Z,38.33
2018-10-19T00:05:25.617Z,39.87
2018-10-19T00:07:54.234Z,38.43
2018-10-19T00:10:21.800Z,34.50
2018-10-19T00:12:49.370Z,37.33
2018-10-19T00:15:17.223Z,36.43
2018-10-19T00:17:44.806Z,38.07
2018-10-19T00:20:12.405Z,36.93
2018-10-19T00:22:39.942Z,36.67
2018-10-19T00:25:09.417Z,37.83
2018-10-19T00:27:37.924Z,39.07
2018-10-19T00:30:06.713Z,39.60
2018-10-19T00:32:34.608Z,37.47
2018-10-19T00:35:02.210Z,38.73
2018-10-19T00:37:29.783Z,34.80
2018-10-19T00:39:57.350Z,36.60
2018-10-19T00:42:25.120Z,38.67
2018-10-19T00:44:52.791Z,34.70
2018-10-19T00:47:20.346Z,38.67
2018-10-19T00:49:48.311Z,36.37
2018-10-19T00:52:15.912Z,35.63
2018-10-19T00:54:43.553Z,36.10
2018-10-19T00:57:11.165Z,37.57
2018-10-19T00:59:38.740Z,39.60
2018-10-19T01:02:06.992Z,36.37
2018-10-19T01:04:34.590Z,36.13
2018-10-19T01:07:02.213Z,38.67
2018-10-19T01:09:29.848Z,39.00
2018-10-19T01:11:57.443Z,35.70
2018-10-19T01:14:25.055Z,39.23
2018-10-19T01:16:52.773Z,37.00
2018-10-19T01:19:20.461Z,35.33
2018-10-19T01:21:48.057Z,32.57
2018-10-19T01:24:15.663Z,30.90
2018-10-19T01:26:43.290Z,29.53
2018-10-19T01:29:10.894Z,32.77
2018-10-19T01:31:39.761Z,33.00
2018-10-19T01:34:07.691Z,30.90
2018-10-19T01:36:41.306Z,25.53
2018-10-19T01:39:09.638Z,28.07
2018-10-19T01:41:37.253Z,27.27
2018-10-19T01:44:05.655Z,24.47
2018-10-19T01:46:33.249Z,22.50
2018-10-19T01:49:00.831Z,24.57
2018-10-19T01:51:28.561Z,22.37
2018-10-19T01:53:56.212Z,23.57
2018-10-19T01:56:23.785Z,29.43
2018-10-19T01:58:51.429Z,27.67
2018-10-19T02:01:20.709Z,31.53
2018-10-19T02:03:48.581Z,29.30
2018-10-19T02:06:16.199Z,32.30
2018-10-19T02:08:43.756Z,32.13
2018-10-19T02:11:11.418Z,35.60
2018-10-19T02:13:39.064Z,36.07
2018-10-19T02:16:06.870Z,37.27
2018-10-19T02:18:34.492Z,41.53
2018-10-19T02:21:02.155Z,34.83
2018-10-19T02:23:29.725Z,39.53
2018-10-19T02:25:57.319Z,40.90
2018-10-19T02:28:25.007Z,34.83
2018-10-19T02:30:52.602Z,39.07
2018-10-19T02:33:20.244Z,41.50
2018-10-19T02:35:47.931Z,38.97
2018-10-19T02:38:15.560Z,33.57
2018-10-19T02:40:43.182Z,37.40
2018-10-19T02:43:10.811Z,32.90
2018-10-19T02:45:42.120Z,38.17
2018-10-19T02:48:10.889Z,36.77
2018-10-19T02:50:38.574Z,35.87
2018-10-19T02:53:06.380Z,42.27
2018-10-19T02:55:34.750Z,42.03
2018-10-19T02:58:02.894Z,43.43
2018-10-19T03:00:30.494Z,45.87
2018-10-19T03:02:58.078Z,45.40
2018-10-19T03:05:25.867Z,42.27
2018-10-19T03:07:53.502Z,45.63
2018-10-19T03:10:21.105Z,45.40
2018-10-19T03:12:48.754Z,49.10
2018-10-19T03:15:16.460Z,46.30
2018-10-19T03:17:44.074Z,47.97
2018-10-19T03:20:11.700Z,44.03
2018-10-19T03:22:39.272Z,50.03
2018-10-19T03:25:07.559Z,47.67
2018-10-19T03:27:35.134Z,51.73
2018-10-19T03:30:02.806Z,49.27
2018-10-19T03:32:30.364Z,47.77
2018-10-19T03:34:57.976Z,52.53
2018-10-19T03:37:25.517Z,49.37
2018-10-19T03:39:53.021Z,53.10
2018-10-19T03:42:20.589Z,53.10
2018-10-19T03:44:48.273Z,51.30
2018-10-19T03:47:15.943Z,56.57
2018-10-19T03:49:43.477Z,47.23
2018-10-19T03:52:11.037Z,54.20
2018-10-19T03:54:38.657Z,49.37
2018-10-19T03:57:06.340Z,51.23
2018-10-19T03:59:33.829Z,52.00
2018-10-19T04:02:01.429Z,52.63
2018-10-19T04:04:29.047Z,47.60
2018-10-19T04:06:56.609Z,52.63
2018-10-19T04:09:24.203Z,53.33
2018-10-19T04:11:51.795Z,48.87
2018-10-19T04:14:19.407Z,53.07
2018-10-19T04:16:47.293Z,55.83
2018-10-19T04:19:15.029Z,52.43
2018-10-19T04:21:42.632Z,54.37
2018-10-19T04:24:10.204Z,51.33
2018-10-19T04:26:37.948Z,58.73
2018-10-19T04:29:05.654Z,61.20
2018-10-19T04:31:33.373Z,57.17
2018-10-19T04:34:01.224Z,65.27
2018-10-19T04:36:28.879Z,62.50
2018-10-19T04:38:56.589Z,58.63
2018-10-19T04:41:24.233Z,57.40
2018-10-19T04:43:51.839Z,58.57
2018-10-19T04:46:19.492Z,56.23
2018-10-19T04:48:47.661Z,59.73
2018-10-19T04:51:16.377Z,61.50
2018-10-19T04:53:44.110Z,62.33
2018-10-19T04:56:11.662Z,56.57
2018-10-19T04:58:39.472Z,57.07
2018-10-19T05:01:07.325Z,52.33
2018-10-19T05:03:34.918Z,54.67
2018-10-19T05:06:02.671Z,56.23
2018-10-19T05:08:30.296Z,54.27
2018-10-19T05:10:57.923Z,53.30
2018-10-19T05:13:25.602Z,51.40
2018-10-19T05:15:53.209Z,45.23
2018-10-19T05:18:20.857Z,49.50
2018-10-19T05:20:48.544Z,50.33
2018-10-19T05:23:16.237Z,47.23
2018-10-19T05:25:43.972Z,50.70
2018-10-19T05:28:12.022Z,49.53
2018-10-19T05:30:39.936Z,52.13
2018-10-19T05:33:08.066Z,48.53
2018-10-19T05:35:35.989Z,55.73
2018-10-19T05:38:04.137Z,57.63
2018-10-19T05:40:32.180Z,52.17
2018-10-19T05:43:00.076Z,55.13
2018-10-19T05:45:29.238Z,55.37
2018-10-19T05:47:57.295Z,52.00
2018-10-19T05:50:25.385Z,55.77
2018-10-19T05:52:53.612Z,51.30
2018-10-19T05:55:21.836Z,54.00
2018-10-19T05:57:49.919Z,54.40
2018-10-19T06:00:18.314Z,57.90
2018-10-19T06:02:46.419Z,61.77
2018-10-19T06:05:14.635Z,55.17
2018-10-19T06:07:42.656Z,55.47
2018-10-19T06:10:10.978Z,53.57
2018-10-19T06:12:40.125Z,56.93
2018-10-19T06:15:08.479Z,59.77
2018-10-19T06:17:36.552Z,56.53
2018-10-19T06:20:05.854Z,55.37
2018-10-19T06:22:34.001Z,57.00
2018-10-19T06:25:02.080Z,51.50
2018-10-19T06:27:30.615Z,51.67
2018-10-19T06:29:58.695Z,55.97
2018-10-19T06:32:26.818Z,53.97
2018-10-19T06:34:54.805Z,54.43
2018-10-19T06:37:22.831Z,50.67
2018-10-19T06:40:11.199Z,47.03
2018-10-19T06:42:39.212Z,43.40
2018-10-19T06:45:07.602Z,43.17
2018-10-19T06:47:35.603Z,50.43
2018-10-19T06:50:04.581Z,45.60
2018-10-19T06:52:32.597Z,45.53
2018-10-19T06:55:00.541Z,47.97
2018-10-19T06:57:28.523Z,48.50
2018-10-19T06:59:56.794Z,49.60
2018-10-19T07:02:24.909Z,47.50
2018-10-19T07:04:53.018Z,53.00
2018-10-19T07:07:20.988Z,48.27
2018-10-19T07:09:49.097Z,46.43
2018-10-19T07:12:17.384Z,48.07
2018-10-19T07:14:45.203Z,49.00
2018-10-19T07:17:13.364Z,46.50
2018-10-19T07:19:41.602Z,46.00
2018-10-19T07:22:09.674Z,46.00
2018-10-19T07:24:37.830Z,49.43
2018-10-19T07:27:22.075Z,51.20
2018-10-19T07:29:50.141Z,49.80
2018-10-19T07:32:18.328Z,46.00
2018-10-19T07:34:46.429Z,51.57
2018-10-19T07:37:14.402Z,54.03
2018-10-19T07:39:42.617Z,46.87
2018-10-19T07:42:10.803Z,49.50
2018-10-19T07:44:38.631Z,48.63
2018-10-19T07:47:06.755Z,43.83
2018-10-19T07:49:35.076Z,44.37
2018-10-19T07:52:03.264Z,44.33
2018-10-19T07:54:37.485Z,45.77
2018-10-19T07:57:05.513Z,44.80
2018-10-19T07:59:33.751Z,46.30
2018-10-19T08:02:01.968Z,48.30
2018-10-19T08:04:30.026Z,49.73
2018-10-19T08:06:58.240Z,45.73
2018-10-19T08:09:26.278Z,42.37
2018-10-19T08:11:55.816Z,46.60
2018-10-19T08:14:23.860Z,45.37
2018-10-19T08:16:52.221Z,39.03
2018-10-19T08:19:20.289Z,36.73
2018-10-19T08:21:53.037Z,39.00
2018-10-19T08:24:20.997Z,43.43
2018-10-19T08:26:49.071Z,37.27
2018-10-19T08:29:18.886Z,35.00
2018-10-19T08:31:46.978Z,41.27
2018-10-19T08:34:15.036Z,34.20
2018-10-19T08:36:43.248Z,39.43
2018-10-19T08:39:11.221Z,37.93
2018-10-19T08:41:39.228Z,41.33
2018-10-19T08:44:07.229Z,39.77
2018-10-19T08:46:41.389Z,39.63
2018-10-19T08:49:10.902Z,36.20
2018-10-19T08:51:39.834Z,33.33
2018-10-19T08:54:08.469Z,37.73
2018-10-19T08:56:36.608Z,34.50
2018-10-19T08:59:04.826Z,40.07
2018-10-19T09:01:32.984Z,35.43
2018-10-19T09:04:01.029Z,42.97
2018-10-19T09:06:28.999Z,38.97
2018-10-19T09:08:56.968Z,39.50
2018-10-19T09:11:25.205Z,40.57
2018-10-19T09:13:53.201Z,38.17
2018-10-19T09:16:21.268Z,38.97
2018-10-19T09:18:49.219Z,41.10
2018-10-19T09:21:17.997Z,38.43
2018-10-19T09:23:45.870Z,41.37
2018-10-19T09:26:13.838Z,40.87
2018-10-19T09:28:42.384Z,41.90
2018-10-19T09:31:10.390Z,41.93
2018-10-19T09:33:38.497Z,39.40
2018-10-19T09:36:06.503Z,37.93
2018-10-19T09:38:34.505Z,33.13
2018-10-19T09:41:02.527Z,38.73
2018-10-19T09:43:30.502Z,36.57
2018-10-19T09:45:58.706Z,33.67
2018-10-19T09:48:26.636Z,33.73
2018-10-19T09:50:54.809Z,30.10
2018-10-19T09:53:22.899Z,31.50
2018-10-19T09:55:50.823Z,29.57
2018-10-19T09:58:18.909Z,32.03
2018-10-19T10:00:52.366Z,33.00
2018-10-19T10:03:20.392Z,32.50
2018-10-19T10:05:48.479Z,38.10
2018-10-19T10:08:16.632Z,30.43
2018-10-19T10:10:44.639Z,29.63
2018-10-19T10:13:12.677Z,36.40
2018-10-19T10:15:40.658Z,31.67
2018-10-19T10:18:08.604Z,36.50
2018-10-19T10:20:36.867Z,28.23
2018-10-19T10:23:05.266Z,25.43
2018-10-19T10:25:33.236Z,27.77
2018-10-19T10:28:01.255Z,29.73
2018-10-19T10:30:29.249Z,30.20
2018-10-19T10:32:57.210Z,27.53
2018-10-19T10:35:25.052Z,25.33
2018-10-19T10:37:54.056Z,28.53
2018-10-19T10:40:22.009Z,28.77
2018-10-19T10:42:50.080Z,25.67
2018-10-19T10:45:18.157Z,30.00
2018-10-19T10:47:46.115Z,25.67
2018-10-19T10:50:14.095Z,24.37
2018-10-19T10:52:42.368Z,23.17
2018-10-19T10:55:10.403Z,29.47
2018-10-19T10:57:38.603Z,28.00
2018-10-19T11:00:11.237Z,25.57
2018-10-19T11:02:39.230Z,24.33
2018-10-19T11:05:07.310Z,28.23
2018-10-19T11:07:35.704Z,24.47
2018-10-19T11:10:03.910Z,26.27
2018-10-19T11:12:31.789Z,27.73
2018-10-19T11:15:00.080Z,26.40
2018-10-19T11:17:28.208Z,28.07
2018-10-19T11:19:56.170Z,28.40
2018-10-19T11:22:24.043Z,31.93
2018-10-19T11:24:53.521Z,29.20
2018-10-19T11:27:21.790Z,25.90
2018-10-19T11:29:53.144Z,26.80
2018-10-19T11:32:21.373Z,28.00
2018-10-19T11:34:49.303Z,25.27
2018-10-19T11:37:17.380Z,28.53
2018-10-19T11:39:56.960Z,27.83
2018-10-19T11:42:25.212Z,26.90
2018-10-19T11:44:53.125Z,30.67
2018-10-19T11:47:21.468Z,27.57
2018-10-19T11:49:49.572Z,28.00
2018-10-19T11:52:17.555Z,26.80
2018-10-19T11:54:45.598Z,27.90
2018-10-19T11:57:13.708Z,27.37
2018-10-19T11:59:41.533Z,36.57
2018-10-19T12:02:10.245Z,27.80
2018-10-19T12:04:38.805Z,25.63
2018-10-19T12:07:07.018Z,31.37
2018-10-19T12:09:35.015Z,26.50
2018-10-19T12:12:03.677Z,28.63
2018-10-19T12:14:31.665Z,30.90
2018-10-19T12:16:59.879Z,33.07
2018-10-19T12:19:27.696Z,30.47
2018-10-19T12:21:55.742Z,27.00
2018-10-19T12:24:23.706Z,25.00
2018-10-19T12:26:51.687Z,26.77
2018-10-19T12:29:19.658Z,26.97
2018-10-19T12:31:47.683Z,24.37
2018-10-19T12:34:15.820Z,24.37
2018-10-19T12:36:43.855Z,25.57
2018-10-19T12:39:12.019Z,32.87
2018-10-19T12:41:39.928Z,24.53
2018-10-19T12:44:07.920Z,30.50
2018-10-19T12:46:48.269Z,21.27
2018-10-19T12:49:18.021Z,26.80
2018-10-19T12:51:46.045Z,24.90
2018-10-19T12:54:14.209Z,24.33
2018-10-19T12:56:42.402Z,24.13
2018-10-19T12:59:10.391Z,26.87
2018-10-19T13:01:38.512Z,25.40
2018-10-19T13:04:06.677Z,26.57
2018-10-19T13:06:34.822Z,23.77
2018-10-19T13:09:04.812Z,27.00
2018-10-19T13:11:32.897Z,28.33
2018-10-19T13:14:01.133Z,24.53
2018-10-19T13:16:29.327Z,22.97
2018-10-19T13:18:57.399Z,23.57
2018-10-19T13:21:25.419Z,22.83
2018-10-19T13:23:53.741Z,25.63
2018-10-19T13:26:22.086Z,20.97
2018-10-19T13:28:50.154Z,23.43
2018-10-19T13:31:18.154Z,22.53
2018-10-19T13:33:46.095Z,24.50
2018-10-19T13:36:16.035Z,21.73
2018-10-19T13:38:44.168Z,19.77
2018-10-19T13:41:12.137Z,24.33
2018-10-19T13:43:40.937Z,21.50
2018-10-19T13:46:08.889Z,22.33
2018-10-19T13:48:36.897Z,22.07
2018-10-19T13:51:05.458Z,23.87
2018-10-19T13:53:33.451Z,25.93
2018-10-19T13:56:02.247Z,25.53
2018-10-19T13:58:30.300Z,24.97
2018-10-19T14:00:58.244Z,24.20
2018-10-19T14:03:26.294Z,26.87
2018-10-19T14:05:54.242Z,24.23
2018-10-19T14:08:22.347Z,27.60
2018-10-19T14:10:50.413Z,28.70
2018-10-19T14:13:18.391Z,25.67
2018-10-19T14:15:46.397Z,30.20
2018-10-19T14:18:14.425Z,23.00
2018-10-19T14:20:42.640Z,26.87
2018-10-19T14:23:10.595Z,25.70
2018-10-19T14:25:38.595Z,23.23
2018-10-19T14:28:06.708Z,28.40
2018-10-19T14:30:34.781Z,24.77
2018-10-19T14:33:02.914Z,26.47
2018-10-19T14:35:30.840Z,26.53
2018-10-19T14:37:58.924Z,29.00
2018-10-19T14:40:26.974Z,27.63
2018-10-19T14:42:54.999Z,28.13
2018-10-19T14:45:22.949Z,26.50
2018-10-19T14:47:50.951Z,24.90
2018-10-19T14:50:19.146Z,23.87
2018-10-19T14:52:47.137Z,24.27
2018-10-19T14:55:16.710Z,23.37
2018-10-19T14:57:44.768Z,27.53
2018-10-19T15:00:14.087Z,29.63
2018-10-19T15:02:42.417Z,29.83
2018-10-19T15:05:11.994Z,28.57
2018-10-19T15:07:40.135Z,23.63
2018-10-19T15:10:12.776Z,30.87
2018-10-19T15:12:40.955Z,31.10
2018-10-19T15:15:10.315Z,31.67
2018-10-19T15:17:38.234Z,27.00
2018-10-19T15:20:06.304Z,27.93
2018-10-19T15:22:35.043Z,31.73
2018-10-19T15:25:03.222Z,29.67
2018-10-19T15:27:31.168Z,32.00
2018-10-19T15:29:59.115Z,27.63
2018-10-19T15:32:27.289Z,33.17
2018-10-19T15:34:55.560Z,32.97
2018-10-19T15:37:24.115Z,31.20
2018-10-19T15:39:52.196Z,31.93
2018-10-19T15:42:20.368Z,31.43
2018-10-19T15:44:48.364Z,30.50
2018-10-19T15:47:16.241Z,34.23
2018-10-19T15:49:44.145Z,35.80
2018-10-19T15:52:12.131Z,32.73
2018-10-19T15:54:40.106Z,37.50
2018-10-19T15:57:08.111Z,39.30
2018-10-19T15:59:36.264Z,37.13
2018-10-19T16:02:04.628Z,38.93
2018-10-19T16:04:32.730Z,40.77
2018-10-19T16:07:00.701Z,42.40
2018-10-19T16:09:28.934Z,37.47
2018-10-19T16:11:57.032Z,36.77
2018-10-19T16:14:25.813Z,40.03
2018-10-19T16:16:53.806Z,45.07
2018-10-19T16:19:21.917Z,37.70
2018-10-19T16:21:49.932Z,42.90
2018-10-19T16:24:17.977Z,42.90
2018-10-19T16:26:46.000Z,44.57
2018-10-19T16:29:14.062Z,38.50
2018-10-19T16:31:41.945Z,39.17
2018-10-19T16:34:09.970Z,38.57
2018-10-19T16:36:38.037Z,36.17
2018-10-19T16:39:07.269Z,37.13
2018-10-19T16:41:35.234Z,39.33
2018-10-19T16:44:03.550Z,40.00
2018-10-19T16:46:31.597Z,37.90
2018-10-19T16:48:59.581Z,38.77
2018-10-19T16:51:27.547Z,40.43
2018-10-19T16:53:56.536Z,37.73
2018-10-19T16:56:24.702Z,39.03
2018-10-19T16:58:52.579Z,35.87
2018-10-19T17:01:20.842Z,37.47
2018-10-19T17:03:48.828Z,37.53
2018-10-19T17:06:16.937Z,41.67
2018-10-19T17:08:45.121Z,34.20
2018-10-19T17:11:13.203Z,34.30
2018-10-19T17:13:41.196Z,38.43
2018-10-19T17:16:09.442Z,42.17
2018-10-19T17:18:37.683Z,40.30
2018-10-19T17:21:05.511Z,39.63
2018-10-19T17:23:33.344Z,49.73
2018-10-19T17:26:01.428Z,37.40
2018-10-19T17:28:29.419Z,42.80
2018-10-19T17:30:57.421Z,45.33
2018-10-19T17:33:25.633Z,42.30
2018-10-19T17:35:53.709Z,41.43
2018-10-19T17:38:22.304Z,44.77
2018-10-19T17:40:50.489Z,42.73
2018-10-19T17:43:18.496Z,51.97
2018-10-19T17:45:46.530Z,45.67
2018-10-19T17:48:14.642Z,47.20
2018-10-19T17:50:42.624Z,44.07
2018-10-19T17:53:10.795Z,38.27
2018-10-19T17:55:38.766Z,50.13
2018-10-19T17:58:06.837Z,54.10
2018-10-19T18:00:35.025Z,60.23
2018-10-19T18:03:03.157Z,60.70
2018-10-19T18:05:31.077Z,55.57
2018-10-19T18:07:59.179Z,60.30
2018-10-19T18:10:27.581Z,65.33
2018-10-19T18:12:55.528Z,66.53
2018-10-19T18:15:24.007Z,69.87
2018-10-19T18:17:52.055Z,63.77
2018-10-19T18:20:20.065Z,66.73
2018-10-19T18:22:48.179Z,73.30
2018-10-19T18:25:16.095Z,70.10
2018-10-19T18:27:44.298Z,84.70
2018-10-19T18:30:12.291Z,78.37
2018-10-19T18:32:40.214Z,68.63
2018-10-19T18:35:09.668Z,85.30
2018-10-19T18:37:37.647Z,78.93
2018-10-19T18:40:07.380Z,78.23
2018-10-19T18:42:36.214Z,77.97
2018-10-19T18:45:04.902Z,85.57
2018-10-19T18:47:33.158Z,79.50
2018-10-19T18:50:01.136Z,72.03
2018-10-19T18:52:29.097Z,81.07
2018-10-19T18:54:57.093Z,73.17
2018-10-19T18:57:25.194Z,76.27
2018-10-19T18:59:56.398Z,73.07
2018-10-19T19:02:24.561Z,71.60
2018-10-19T19:04:52.600Z,82.17
2018-10-19T19:07:20.537Z,80.10
2018-10-19T19:09:53.998Z,85.10
2018-10-19T19:12:22.007Z,76.67
2018-10-19T19:14:49.981Z,66.97
2018-10-19T19:17:18.177Z,72.27
2018-10-19T19:19:51.638Z,70.80
2018-10-19T19:22:19.560Z,88.10
2018-10-19T19:24:52.991Z,78.43
2018-10-19T19:27:20.991Z,85.27
2018-10-19T19:29:48.959Z,75.93
2018-10-19T19:32:16.900Z,88.13
2018-10-19T19:34:45.073Z,74.60
2018-10-19T19:37:13.105Z,83.50
2018-10-19T19:39:44.983Z,74.93
2018-10-19T19:42:18.545Z,77.90
2018-10-19T19:44:49.711Z,86.40
2018-10-19T19:47:23.356Z,71.03
2018-10-19T19:49:51.338Z,76.57
2018-10-19T19:52:20.755Z,75.00
2018-10-19T19:54:48.655Z,70.67
2018-10-19T19:57:16.656Z,73.60
2018-10-19T19:59:44.843Z,78.97
2018-10-19T20:02:12.900Z,81.03
2018-10-19T20:04:40.902Z,64.13
2018-10-19T20:07:09.102Z,73.47
2018-10-19T20:09:37.176Z,72.83
2018-10-19T20:12:05.683Z,76.83
2018-10-19T20:14:33.669Z,80.57
2018-10-19T20:17:01.642Z,80.40
2018-10-19T20:19:29.657Z,78.60
2018-10-19T20:21:57.659Z,66.30
2018-10-19T20:24:25.798Z,75.57
2018-10-19T20:26:53.659Z,63.53
2018-10-19T20:29:21.819Z,73.53
2018-10-19T20:31:49.819Z,82.77
2018-10-19T20:34:17.873Z,67.63
2018-10-19T20:36:46.046Z,69.33
2018-10-19T20:39:14.066Z,64.33
2018-10-19T20:41:42.133Z,81.40
2018-10-19T20:44:10.578Z,86.43
2018-10-19T20:46:38.524Z,78.47
2018-10-19T20:49:06.604Z,70.00
2018-10-19T20:51:34.707Z,75.93
2018-10-19T20:54:02.969Z,84.00
2018-10-19T20:56:30.932Z,74.70
2018-10-19T20:58:58.988Z,84.67
2018-10-19T21:01:27.074Z,62.90
2018-10-19T21:03:55.147Z,82.23
2018-10-19T21:06:23.106Z,88.27
2018-10-19T21:08:51.214Z,85.93
2018-10-19T21:11:19.173Z,91.30
2018-10-19T21:13:47.441Z,88.30
2018-10-19T21:16:15.480Z,83.23
2018-10-19T21:18:43.617Z,92.13
2018-10-19T21:21:11.744Z,89.93
2018-10-19T21:23:39.718Z,82.13
2018-10-19T21:26:07.752Z,75.77
2018-10-19T21:28:35.800Z,73.60
2018-10-19T21:31:03.763Z,78.53
2018-10-19T21:33:32.032Z,79.13
2018-10-19T21:36:00.174Z,76.17
2018-10-19T21:38:28.272Z,67.47
2018-10-19T21:40:56.455Z,65.97
2018-10-19T21:43:24.396Z,57.60
2018-10-19T21:45:52.421Z,60.97
2018-10-19T21:48:20.412Z,71.40
2018-10-19T21:50:48.346Z,71.03
2018-10-19T21:53:16.397Z,55.07
2018-10-19T21:55:44.453Z,53.30
2018-10-19T21:58:14.617Z,66.77
2018-10-19T22:00:42.788Z,66.07
2018-10-19T22:03:10.775Z,60.70
2018-10-19T22:05:38.858Z,54.23
2018-10-19T22:08:06.946Z,55.43
2018-10-19T22:10:34.895Z,72.30
2018-10-19T22:13:02.973Z,65.10
2018-10-19T22:15:32.003Z,56.77
2018-10-19T22:18:00.036Z,63.73
2018-10-19T22:20:27.980Z,59.00
2018-10-19T22:22:56.110Z,67.83
2018-10-19T22:25:24.194Z,52.20
2018-10-19T22:27:52.261Z,51.57
2018-10-19T22:30:20.257Z,47.93
2018-10-19T22:32:48.302Z,50.20
2018-10-19T22:35:16.459Z,49.63
2018-10-19T22:37:44.493Z,46.33
2018-10-19T22:40:12.650Z,41.93
2018-10-19T22:42:40.670Z,37.33
2018-10-19T22:45:08.944Z,34.27
2018-10-19T22:47:36.942Z,32.97
2018-10-19T22:50:05.088Z,33.53
2018-10-19T22:52:33.087Z,38.73
2018-10-19T22:55:01.223Z,35.53
2018-10-19T22:57:29.278Z,39.70
2018-10-19T22:59:57.256Z,40.33
2018-10-19T23:02:25.207Z,35.07
2018-10-19T23:04:53.154Z,30.90
2018-10-19T23:07:21.129Z,37.07
2018-10-19T23:09:49.323Z,33.27
2018-10-19T23:12:17.248Z,30.30
2018-10-19T23:14:45.300Z,30.23
2018-10-19T23:17:13.398Z,30.00
2018-10-19T23:19:41.485Z,46.07
2018-10-19T23:22:09.118Z,37.63
2018-10-19T23:24:36.788Z,38.77
2018-10-19T23:27:04.492Z,31.17
2018-10-19T23:29:32.080Z,35.03
2018-10-19T23:31:59.601Z,27.37
2018-10-19T23:34:27.273Z,38.83
2018-10-19T23:36:54.912Z,35.47
2018-10-19T23:39:22.565Z,33.77
2018-10-19T23:41:50.128Z,35.67
2018-10-19T23:44:17.746Z,29.30
2018-10-19T23:46:45.352Z,33.10
2018-10-19T23:49:13.040Z,34.20
2018-10-19T23:51:40.510Z,27.67
2018-10-19T23:54:08.040Z,26.37
2018-10-19T23:56:35.916Z,28.40
2018-10-19T23:59:03.848Z,29.20
